createdAt,value
2023-03-22T00:01:41.027Z,100279.95
2023-03-22T00:04:12.046Z,100279.95
2023-03-22T00:06:40.779Z,100283.42
2023-03-22T00:09:11.717Z,100277.26
2023-03-22T00:11:42.890Z,100273.78
2023-03-22T00:14:14.621Z,100272.67
2023-03-22T00:16:49.979Z,100270.71
2023-03-22T00:19:21.603Z,100266.48
2023-03-22T00:21:51.346Z,100262.09
2023-03-22T00:24:22.239Z,100255.45
2023-03-22T00:26:53.266Z,100257.37
2023-03-22T00:29:23.869Z,100259.04
2023-03-22T00:32:03.050Z,100251.77
2023-03-22T00:34:33.905Z,100244.14
2023-03-22T00:37:06.218Z,100245.30
2023-03-22T00:39:37.379Z,100238.04
2023-03-22T00:42:07.895Z,100239.33
2023-03-22T00:44:36.876Z,100233.71
2023-03-22T00:47:11.887Z,100229.35
2023-03-22T00:49:42.539Z,100228.98
2023-03-22T00:52:17.960Z,100227.13
2023-03-22T00:54:48.827Z,100225.36
2023-03-22T00:57:20.402Z,100226.04
2023-03-22T00:59:49.482Z,100227.54
2023-03-22T01:02:20.954Z,100224.73
2023-03-22T01:04:53.388Z,100221.16
2023-03-22T01:07:23.853Z,100219.85
2023-03-22T01:09:53.837Z,100221.95
2023-03-22T01:12:22.489Z,100221.33
2023-03-22T01:14:50.929Z,100217.17
2023-03-22T01:17:19.815Z,100215.31
2023-03-22T01:19:51.596Z,100212.10
2023-03-22T01:22:20.166Z,100208.33
2023-03-22T01:24:50.900Z,100202.26
2023-03-22T01:27:22.658Z,100196.06
2023-03-22T01:29:52.539Z,100196.08
2023-03-22T01:32:24.870Z,100193.02
2023-03-22T01:34:55.780Z,100187.67
2023-03-22T01:37:29.815Z,100184.67
2023-03-22T01:39:59.760Z,100181.05
2023-03-22T01:42:32.097Z,100178.63
2023-03-22T01:45:18.812Z,100176.67
2023-03-22T01:47:51.364Z,100177.02
2023-03-22T01:50:21.106Z,100173.96
2023-03-22T01:52:53.037Z,100172.67
2023-03-22T01:55:37.239Z,100168.67
2023-03-22T01:58:24.519Z,100166.66
2023-03-22T02:00:59.539Z,100165.80
2023-03-22T02:04:19.957Z,100161.19
2023-03-22T02:06:56.189Z,100155.02
2023-03-22T02:09:28.506Z,100151.48
2023-03-22T02:13:17.291Z,100153.69
2023-03-22T02:16:21.322Z,100147.20
2023-03-22T02:19:41.947Z,100145.86
2023-03-22T02:22:46.328Z,100142.25
2023-03-22T02:25:44.219Z,100141.64
2023-03-22T02:28:55.657Z,100138.67
2023-03-22T02:31:41.961Z,100136.35
2023-03-22T02:34:53.623Z,100136.21
2023-03-22T02:37:37.493Z,100136.67
2023-03-22T02:40:16.649Z,100132.14
2023-03-22T02:43:24.537Z,100131.57
2023-03-22T02:46:28.494Z,100133.30
2023-03-22T02:49:47.401Z,100126.91
2023-03-22T02:52:26.557Z,100123.45
2023-03-22T02:55:01.405Z,100120.66
2023-03-22T02:57:41.815Z,100119.58
2023-03-22T03:00:15.976Z,100116.96
2023-03-22T03:02:57.244Z,100118.02
2023-03-22T03:05:30.253Z,100117.79
2023-03-22T03:08:20.589Z,100116.36
2023-03-22T03:10:51.453Z,100114.59
2023-03-22T03:13:21.199Z,100118.94
2023-03-22T03:15:58.895Z,100118.45
2023-03-22T03:18:59.627Z,100119.81
2023-03-22T03:21:54.007Z,100117.73
2023-03-22T03:24:51.807Z,100117.00
2023-03-22T03:27:40.422Z,100112.38
2023-03-22T03:30:27.791Z,100114.81
2023-03-22T03:33:09.606Z,100116.46
2023-03-22T03:36:07.990Z,100115.39
2023-03-22T03:38:49.373Z,100119.55
2023-03-22T03:41:26.086Z,100120.09
2023-03-22T03:43:59.168Z,100117.28
2023-03-22T03:46:31.275Z,100120.35
2023-03-22T03:49:07.756Z,100114.55
2023-03-22T03:51:53.074Z,100116.65
2023-03-22T03:54:25.218Z,100115.02
2023-03-22T03:56:54.611Z,100110.17
2023-03-22T03:59:28.960Z,100111.77
2023-03-22T04:02:05.960Z,100111.69
2023-03-22T04:04:37.145Z,100112.89
2023-03-22T04:07:11.031Z,100112.95
2023-03-22T04:09:41.512Z,100114.80
2023-03-22T04:12:36.503Z,100115.38
2023-03-22T04:15:15.262Z,100117.00
2023-03-22T04:17:51.046Z,100118.41
2023-03-22T04:20:23.370Z,100121.97
2023-03-22T04:22:52.441Z,100123.71
2023-03-22T04:25:23.534Z,100124.56
2023-03-22T04:28:05.961Z,100121.34
2023-03-22T04:30:39.120Z,100120.86
2023-03-22T04:33:39.688Z,100119.30
2023-03-22T04:36:22.993Z,100120.75
2023-03-22T04:39:13.556Z,100119.70
2023-03-22T04:41:44.285Z,100117.77
2023-03-22T04:44:19.512Z,100118.05
2023-03-22T04:46:51.264Z,100117.57
2023-03-22T04:49:24.591Z,100118.98
2023-03-22T04:51:56.934Z,100121.36
2023-03-22T04:54:32.917Z,100120.60
2023-03-22T04:57:04.828Z,100119.91
2023-03-22T04:59:41.175Z,100120.27
2023-03-22T05:02:17.323Z,100115.90
2023-03-22T05:04:51.830Z,100114.14
2023-03-22T05:07:41.403Z,100109.66
2023-03-22T05:10:13.386Z,100105.50
2023-03-22T05:12:42.476Z,100097.28
2023-03-22T05:15:24.145Z,100102.30
2023-03-22T05:17:56.028Z,100101.69
2023-03-22T05:20:29.211Z,100100.12
2023-03-22T05:23:19.476Z,100098.38
2023-03-22T05:25:55.410Z,100100.83
2023-03-22T05:28:27.853Z,100100.70
2023-03-22T05:31:19.749Z,100098.27
2023-03-22T05:34:01.165Z,100101.14
2023-03-22T05:36:31.300Z,100102.54
2023-03-22T05:39:14.754Z,100101.79
2023-03-22T05:41:47.451Z,100098.77
2023-03-22T05:44:26.003Z,100101.08
2023-03-22T05:47:08.312Z,100104.45
2023-03-22T05:49:54.929Z,100105.91
2023-03-22T05:52:29.948Z,100108.30
2023-03-22T05:55:20.614Z,100107.78
2023-03-22T05:57:53.806Z,100113.71
2023-03-22T06:00:38.745Z,100114.22
2023-03-22T06:03:26.676Z,100114.89
2023-03-22T06:06:01.709Z,100116.69
2023-03-22T06:09:04.326Z,100118.85
2023-03-22T06:11:45.325Z,100120.77
2023-03-22T06:14:18.558Z,100121.59
2023-03-22T06:17:14.086Z,100125.98
2023-03-22T06:19:55.474Z,100125.10
2023-03-22T06:22:35.772Z,100124.23
2023-03-22T06:25:14.677Z,100123.96
2023-03-22T06:27:57.565Z,100124.17
2023-03-22T06:30:28.985Z,100126.96
2023-03-22T06:33:20.812Z,100121.30
2023-03-22T06:35:58.650Z,100122.31
2023-03-22T06:38:43.806Z,100125.57
2023-03-22T06:41:15.602Z,100124.30
2023-03-22T06:43:49.998Z,100124.37
2023-03-22T06:46:38.888Z,100119.61
2023-03-22T06:49:18.962Z,100119.77
2023-03-22T06:51:54.603Z,100118.44
2023-03-22T06:54:36.811Z,100118.53
2023-03-22T06:57:08.073Z,100123.77
2023-03-22T06:59:40.201Z,100125.61
2023-03-22T07:02:13.794Z,100122.66
2023-03-22T07:04:48.696Z,100115.85
2023-03-22T07:07:21.298Z,100111.02
2023-03-22T07:10:01.267Z,100113.60
2023-03-22T07:12:31.122Z,100109.06
2023-03-22T07:15:06.447Z,100109.95
2023-03-22T07:17:48.866Z,100109.59
2023-03-22T07:20:20.177Z,100110.94
2023-03-22T07:22:57.869Z,100113.96
2023-03-22T07:25:30.722Z,100111.22
2023-03-22T07:28:17.183Z,100106.30
2023-03-22T07:31:09.774Z,100104.73
2023-03-22T07:34:00.245Z,100105.30
2023-03-22T07:36:38.255Z,100106.57
2023-03-22T07:39:09.124Z,100104.95
2023-03-22T07:41:41.331Z,100109.73
2023-03-22T07:44:45.458Z,100110.84
2023-03-22T07:47:39.563Z,100106.06
2023-03-22T07:50:39.804Z,100105.90
2023-03-22T07:53:19.675Z,100106.71
2023-03-22T07:55:53.560Z,100102.67
2023-03-22T07:58:27.043Z,100099.11
2023-03-22T08:01:14.521Z,100097.73
2023-03-22T08:03:52.096Z,100096.48
2023-03-22T08:06:49.529Z,100097.25
2023-03-22T08:09:20.603Z,100093.92
2023-03-22T08:12:01.360Z,100091.46
2023-03-22T08:14:37.428Z,100090.45
2023-03-22T08:17:10.838Z,100091.61
2023-03-22T08:19:46.663Z,100096.27
2023-03-22T08:22:29.769Z,100095.77
2023-03-22T08:25:29.665Z,100092.68
2023-03-22T08:28:08.506Z,100092.73
2023-03-22T08:30:44.201Z,100097.39
2023-03-22T08:33:17.773Z,100095.28
2023-03-22T08:35:55.156Z,100093.03
2023-03-22T08:38:32.802Z,100092.11
2023-03-22T08:41:07.213Z,100095.08
2023-03-22T08:43:40.443Z,100093.26
2023-03-22T08:46:11.550Z,100093.73
2023-03-22T08:48:41.239Z,100091.30
2023-03-22T08:51:22.459Z,100092.67
2023-03-22T08:54:01.986Z,100091.97
2023-03-22T08:56:49.936Z,100088.36
2023-03-22T08:59:44.520Z,100080.62
2023-03-22T09:02:21.999Z,100084.31
2023-03-22T09:04:52.432Z,100083.71
2023-03-22T09:07:23.951Z,100080.41
2023-03-22T09:10:03.207Z,100079.67
2023-03-22T09:12:33.066Z,100076.72
2023-03-22T09:15:05.420Z,100072.95
2023-03-22T09:17:36.135Z,100071.08
2023-03-22T09:20:15.192Z,100070.80
2023-03-22T09:22:49.234Z,100066.33
2023-03-22T09:25:21.317Z,100069.39
2023-03-22T09:27:50.058Z,100066.21
2023-03-22T09:30:25.144Z,100065.27
2023-03-22T09:32:55.921Z,100061.77
2023-03-22T09:35:34.515Z,100058.87
2023-03-22T09:38:13.370Z,100062.23
2023-03-22T09:41:14.356Z,100055.54
2023-03-22T09:43:54.293Z,100052.72
2023-03-22T09:46:40.890Z,100051.27
2023-03-22T09:49:38.551Z,100050.40
2023-03-22T09:52:18.663Z,100053.06
2023-03-22T09:54:53.566Z,100054.96
2023-03-22T09:57:42.630Z,100053.77
2023-03-22T10:01:05.313Z,100047.48
2023-03-22T10:04:37.475Z,100043.66
2023-03-22T10:07:30.052Z,100042.00
2023-03-22T10:10:10.260Z,100041.52
2023-03-22T10:13:06.077Z,100040.89
2023-03-22T10:16:20.649Z,100045.88
2023-03-22T10:19:14.790Z,100039.42
2023-03-22T10:21:49.801Z,100036.05
2023-03-22T10:24:34.567Z,100032.62
2023-03-22T10:27:18.730Z,100029.50
2023-03-22T10:29:55.523Z,100033.01
2023-03-22T10:33:01.694Z,100031.32
2023-03-22T10:35:38.138Z,100030.38
2023-03-22T10:38:16.459Z,100028.35
2023-03-22T10:40:50.134Z,100027.64
2023-03-22T10:44:02.863Z,100028.30
2023-03-22T10:46:45.176Z,100023.73
2023-03-22T10:49:47.755Z,100025.77
2023-03-22T10:52:23.921Z,100019.38
2023-03-22T10:55:05.588Z,100017.73
2023-03-22T10:57:39.539Z,100017.78
2023-03-22T11:00:17.751Z,100013.71
2023-03-22T11:03:02.157Z,100008.96
2023-03-22T11:05:35.099Z,100008.98
2023-03-22T11:08:08.341Z,100007.50
2023-03-22T11:10:52.276Z,100006.02
2023-03-22T11:13:48.605Z,100002.33
2023-03-22T11:16:22.608Z,100000.13
2023-03-22T11:19:02.144Z,99998.14
2023-03-22T11:21:33.137Z,99994.44
2023-03-22T11:25:06.300Z,99990.11
2023-03-22T11:28:40.887Z,99979.03
2023-03-22T11:31:24.017Z,99975.00
2023-03-22T11:34:01.767Z,99970.42
2023-03-22T11:36:44.973Z,99971.67
2023-03-22T11:39:21.716Z,99965.86
2023-03-22T11:42:08.364Z,99959.03
2023-03-22T11:44:39.641Z,99953.89
2023-03-22T11:47:17.442Z,99949.34
2023-03-22T11:49:54.296Z,99944.98
2023-03-22T11:52:31.411Z,99944.58
2023-03-22T11:55:20.053Z,99937.59
2023-03-22T11:57:56.915Z,99933.20
2023-03-22T12:00:37.346Z,99928.48
2023-03-22T12:03:24.070Z,99921.22
2023-03-22T12:06:02.442Z,99920.95
2023-03-22T12:08:54.955Z,99927.52
2023-03-22T12:11:57.965Z,99919.39
2023-03-22T12:15:15.816Z,99917.05
2023-03-22T12:18:08.424Z,99913.76
2023-03-22T12:21:09.047Z,99909.16
2023-03-22T12:24:01.131Z,99911.54
2023-03-22T12:26:37.872Z,99915.55
2023-03-22T12:29:25.388Z,99920.39
2023-03-22T12:32:11.579Z,99918.88
2023-03-22T12:34:52.524Z,99917.88
2023-03-22T12:37:35.739Z,99914.14
2023-03-22T12:40:44.418Z,99914.13
2023-03-22T12:43:38.031Z,99914.05
2023-03-22T12:46:56.509Z,99915.90
2023-03-22T12:49:52.567Z,99908.42
2023-03-22T12:52:56.230Z,99903.31
2023-03-22T12:55:48.701Z,99905.13
2023-03-22T12:58:34.445Z,99900.83
2023-03-22T13:01:45.670Z,99896.55
2023-03-22T13:04:37.859Z,99896.52
2023-03-22T13:07:43.792Z,99896.39
2023-03-22T13:10:38.834Z,99899.98
2023-03-22T13:13:21.855Z,99897.92
2023-03-22T13:16:12.953Z,99897.50
2023-03-22T13:18:47.314Z,99894.91
2023-03-22T13:21:25.783Z,99889.88
2023-03-22T13:25:16.508Z,99891.52
2023-03-22T13:28:30.633Z,99885.91
2023-03-22T13:31:06.647Z,99884.70
2023-03-22T13:33:53.027Z,99885.21
2023-03-22T13:36:28.997Z,99878.20
2023-03-22T13:39:29.594Z,99879.09
2023-03-22T13:42:29.198Z,99875.23
2023-03-22T13:45:07.324Z,99877.29
2023-03-22T13:47:47.984Z,99877.77
2023-03-22T13:50:29.307Z,99873.71
2023-03-22T13:53:17.802Z,99873.02
2023-03-22T13:56:10.475Z,99874.99
2023-03-22T13:58:54.080Z,99872.30
2023-03-22T14:01:39.701Z,99873.02
2023-03-22T14:04:37.440Z,99869.81
2023-03-22T14:07:34.376Z,99872.73
2023-03-22T14:10:36.050Z,99872.22
2023-03-22T14:13:23.473Z,99869.80
2023-03-22T14:16:07.065Z,99868.19
2023-03-22T14:18:51.421Z,99866.23
